createdAt,value
2022-10-28T00:01:28.346Z,11.70
2022-10-28T00:03:56.843Z,11.68
2022-10-28T00:06:25.511Z,11.66
2022-10-28T00:08:52.610Z,11.65
2022-10-28T00:11:20.872Z,11.61
2022-10-28T00:13:48.140Z,11.58
2022-10-28T00:16:17.342Z,11.55
2022-10-28T00:18:44.850Z,11.54
2022-10-28T00:21:16.593Z,11.52
2022-10-28T00:23:43.714Z,11.53
2022-10-28T00:26:13.174Z,11.51
2022-10-28T00:28:41.345Z,11.49
2022-10-28T00:31:09.231Z,11.48
2022-10-28T00:33:36.724Z,11.46
2022-10-28T00:36:14.977Z,11.44
2022-10-28T00:38:42.997Z,11.41
2022-10-28T00:41:11.202Z,11.40
2022-10-28T00:43:40.514Z,11.38
2022-10-28T00:46:14.760Z,11.38
2022-10-28T00:48:43.446Z,11.37
2022-10-28T00:51:10.673Z,11.37
2022-10-28T00:53:39.887Z,11.36
2022-10-28T00:56:08.647Z,11.35
2022-10-28T00:58:35.828Z,11.34
2022-10-28T01:01:03.257Z,11.33
2022-10-28T01:03:30.616Z,11.33
2022-10-28T01:05:57.771Z,11.30
2022-10-28T01:08:24.924Z,11.30
2022-10-28T01:11:00.737Z,11.29
2022-10-28T01:13:34.246Z,11.29
2022-10-28T01:16:13.212Z,11.27
2022-10-28T01:18:52.987Z,11.25
2022-10-28T01:21:32.911Z,11.25
2022-10-28T01:24:18.896Z,11.24
2022-10-28T01:26:45.953Z,11.22
2022-10-28T01:29:15.770Z,11.20
2022-10-28T01:31:50.138Z,11.17
2022-10-28T01:34:36.024Z,11.14
2022-10-28T01:37:21.891Z,11.13
2022-10-28T01:39:51.929Z,11.11
2022-10-28T01:42:27.604Z,11.10
2022-10-28T01:44:57.716Z,11.08
2022-10-28T01:47:26.825Z,11.05
2022-10-28T01:49:53.839Z,11.03
2022-10-28T01:52:23.638Z,11.01
2022-10-28T01:55:01.383Z,10.98
2022-10-28T01:57:29.684Z,10.97
2022-10-28T01:59:57.426Z,10.96
2022-10-28T02:02:24.932Z,10.95
2022-10-28T02:04:51.957Z,10.93
2022-10-28T02:07:19.026Z,10.93
2022-10-28T02:10:09.972Z,10.93
2022-10-28T02:12:38.031Z,10.93
2022-10-28T02:15:05.075Z,10.92
2022-10-28T02:17:50.805Z,10.92
2022-10-28T02:20:27.247Z,10.91
2022-10-28T02:23:03.866Z,10.90
2022-10-28T02:25:51.121Z,10.89
2022-10-28T02:28:22.548Z,10.88
2022-10-28T02:30:52.736Z,10.88
2022-10-28T02:33:22.879Z,10.87
2022-10-28T02:35:56.042Z,10.85
2022-10-28T02:38:26.286Z,10.85
2022-10-28T02:40:54.921Z,10.84
2022-10-28T02:43:23.480Z,10.84
2022-10-28T02:45:52.548Z,10.84
2022-10-28T02:48:22.160Z,10.83
2022-10-28T02:50:54.009Z,10.81
2022-10-28T02:53:24.383Z,10.80
2022-10-28T02:55:54.921Z,10.79
2022-10-28T02:58:22.341Z,10.81
2022-10-28T03:00:49.889Z,10.80
2022-10-28T03:03:17.187Z,10.79
2022-10-28T03:05:44.495Z,10.78
2022-10-28T03:08:11.528Z,10.78
2022-10-28T03:10:38.554Z,10.77
2022-10-28T03:13:05.594Z,10.75
2022-10-28T03:15:32.654Z,10.75
2022-10-28T03:17:59.703Z,10.75
2022-10-28T03:20:26.783Z,10.75
2022-10-28T03:22:53.978Z,10.75
2022-10-28T03:25:21.209Z,10.75
2022-10-28T03:27:48.235Z,10.75
2022-10-28T03:30:15.348Z,10.74
2022-10-28T03:32:42.883Z,10.74
2022-10-28T03:35:10.313Z,10.73
2022-10-28T03:37:37.369Z,10.71
2022-10-28T03:40:07.910Z,10.70
2022-10-28T03:42:37.561Z,10.70
2022-10-28T03:45:07.969Z,10.69
2022-10-28T03:47:35.338Z,10.68
2022-10-28T03:50:02.511Z,10.68
2022-10-28T03:52:29.567Z,10.68
2022-10-28T03:54:56.594Z,10.65
2022-10-28T03:57:23.702Z,10.64
2022-10-28T03:59:50.811Z,10.63
2022-10-28T04:02:17.929Z,10.65
2022-10-28T04:04:45.089Z,10.65
2022-10-28T04:07:12.191Z,10.65
2022-10-28T04:09:39.272Z,10.64
2022-10-28T04:12:06.807Z,10.60
2022-10-28T04:14:33.916Z,10.57
2022-10-28T04:17:01.125Z,10.56
2022-10-28T04:19:28.232Z,10.54
2022-10-28T04:21:55.266Z,10.51
2022-10-28T04:24:22.371Z,10.51
2022-10-28T04:26:49.667Z,10.50
2022-10-28T04:29:17.017Z,10.50
2022-10-28T04:31:45.526Z,10.50
2022-10-28T04:34:14.629Z,10.50
2022-10-28T04:36:41.736Z,10.50
2022-10-28T04:39:09.625Z,10.39
2022-10-28T04:41:36.699Z,10.35
2022-10-28T04:44:03.857Z,10.35
2022-10-28T04:46:30.866Z,10.34
2022-10-28T04:48:58.033Z,10.33
2022-10-28T04:51:25.074Z,10.29
2022-10-28T04:53:52.109Z,10.26
2022-10-28T04:56:19.185Z,10.20
2022-10-28T04:58:47.299Z,10.16
2022-10-28T05:01:14.463Z,10.14
2022-10-28T05:03:41.569Z,10.23
2022-10-28T05:06:08.596Z,10.19
2022-10-28T05:08:35.709Z,10.16
2022-10-28T05:11:02.775Z,10.14
2022-10-28T05:13:29.874Z,10.11
2022-10-28T05:15:57.023Z,10.11
2022-10-28T05:18:24.203Z,10.10
2022-10-28T05:20:54.780Z,10.06
2022-10-28T05:23:25.802Z,10.01
2022-10-28T05:25:55.713Z,9.97
2022-10-28T05:28:22.797Z,9.97
2022-10-28T05:30:49.946Z,9.99
2022-10-28T05:33:16.973Z,9.99
2022-10-28T05:35:44.059Z,10.00
2022-10-28T05:38:11.325Z,9.95
2022-10-28T05:40:38.394Z,9.89
2022-10-28T05:43:05.542Z,9.85
2022-10-28T05:45:32.687Z,9.84
2022-10-28T05:47:59.705Z,9.88
2022-10-28T05:50:26.785Z,9.90
2022-10-28T05:52:57.550Z,9.91
2022-10-28T05:55:27.742Z,9.87
2022-10-28T05:57:55.813Z,9.83
2022-10-28T06:00:24.645Z,9.79
2022-10-28T06:02:52.070Z,9.75
2022-10-28T06:05:19.520Z,9.71
2022-10-28T06:07:46.600Z,9.71
2022-10-28T06:10:13.760Z,9.72
2022-10-28T06:12:39.343Z,9.75
2022-10-28T06:15:06.561Z,9.79
2022-10-28T06:17:34.579Z,9.84
2022-10-28T06:20:02.651Z,9.88
2022-10-28T06:22:29.713Z,9.89
2022-10-28T06:24:56.819Z,9.91
2022-10-28T06:27:23.856Z,9.94
2022-10-28T06:29:50.859Z,9.95
2022-10-28T06:32:17.939Z,9.96
2022-10-28T06:34:45.011Z,10.00
2022-10-28T06:37:12.831Z,9.98
2022-10-28T06:39:41.962Z,9.98
2022-10-28T06:42:09.046Z,10.01
2022-10-28T06:44:36.075Z,10.06
2022-10-28T06:47:04.715Z,10.11
2022-10-28T06:49:31.818Z,10.13
2022-10-28T06:51:58.897Z,10.14
2022-10-28T06:54:25.978Z,10.15
2022-10-28T06:56:53.274Z,10.16
2022-10-28T06:59:20.376Z,10.19
2022-10-28T07:01:47.563Z,10.19
2022-10-28T07:04:14.883Z,10.20
2022-10-28T07:06:42.029Z,10.24
2022-10-28T07:09:13.020Z,10.25
2022-10-28T07:11:40.689Z,10.26
2022-10-28T07:14:07.749Z,10.25
2022-10-28T07:16:34.881Z,10.27
2022-10-28T07:19:02.045Z,10.24
2022-10-28T07:21:29.873Z,10.26
2022-10-28T07:23:56.969Z,10.29
2022-10-28T07:26:24.514Z,10.31
2022-10-28T07:28:51.710Z,10.32
2022-10-28T07:31:19.107Z,10.34
2022-10-28T07:33:52.029Z,10.36
2022-10-28T07:36:19.164Z,10.38
2022-10-28T07:38:48.395Z,10.42
2022-10-28T07:41:15.466Z,10.43
2022-10-28T07:43:42.552Z,10.43
2022-10-28T07:46:09.761Z,10.41
2022-10-28T07:48:37.261Z,10.44
2022-10-28T07:51:05.719Z,10.49
2022-10-28T07:53:33.163Z,10.52
2022-10-28T07:56:01.846Z,10.57
2022-10-28T07:58:28.992Z,10.57
2022-10-28T08:00:56.103Z,10.61
2022-10-28T08:03:31.097Z,10.64
2022-10-28T08:06:06.803Z,10.67
2022-10-28T08:08:34.408Z,10.71
2022-10-28T08:11:19.092Z,10.74
2022-10-28T08:13:46.386Z,10.83
2022-10-28T08:16:13.473Z,10.88
2022-10-28T08:18:41.020Z,10.92
2022-10-28T08:21:09.475Z,11.01
2022-10-28T08:23:38.243Z,11.07
2022-10-28T08:26:05.709Z,11.15
2022-10-28T08:28:33.001Z,11.19
2022-10-28T08:31:09.099Z,11.23
2022-10-28T08:33:38.119Z,11.24
2022-10-28T08:36:06.002Z,11.31
2022-10-28T08:38:33.448Z,11.43
2022-10-28T08:41:06.569Z,11.68
2022-10-28T08:43:56.826Z,11.79
2022-10-28T08:46:33.090Z,12.01
2022-10-28T08:49:02.073Z,12.05
2022-10-28T08:51:44.477Z,12.20
2022-10-28T08:54:20.576Z,12.47
2022-10-28T08:56:48.941Z,12.68
2022-10-28T08:59:21.651Z,12.75
2022-10-28T09:01:57.370Z,13.04
2022-10-28T09:04:24.416Z,13.40
2022-10-28T09:06:51.474Z,13.37
2022-10-28T09:09:20.815Z,13.41
2022-10-28T09:11:50.997Z,13.49
2022-10-28T09:14:25.751Z,13.54
2022-10-28T09:16:55.578Z,13.68
2022-10-28T09:19:35.081Z,13.52
2022-10-28T09:22:20.762Z,13.32
2022-10-28T09:24:51.375Z,13.51
2022-10-28T09:27:30.491Z,13.72
2022-10-28T09:29:57.481Z,13.78
2022-10-28T09:32:36.822Z,13.93
2022-10-28T09:35:13.280Z,14.09
2022-10-28T09:37:44.510Z,14.20
2022-10-28T09:40:24.037Z,14.33
2022-10-28T09:42:57.093Z,14.48
2022-10-28T09:45:27.281Z,14.79
2022-10-28T09:47:57.335Z,14.95
2022-10-28T09:50:28.454Z,15.15
2022-10-28T09:52:55.460Z,15.09
2022-10-28T09:55:23.177Z,15.30
2022-10-28T09:57:52.072Z,15.44
2022-10-28T10:00:19.655Z,15.46
2022-10-28T10:02:46.988Z,15.50
2022-10-28T10:05:17.092Z,15.57
2022-10-28T10:07:46.501Z,15.75
2022-10-28T10:10:15.989Z,15.87
2022-10-28T10:12:44.331Z,15.89
2022-10-28T10:15:17.605Z,15.85
2022-10-28T10:17:45.828Z,15.88
2022-10-28T10:20:14.407Z,15.85
2022-10-28T10:22:42.660Z,15.97
2022-10-28T10:25:18.765Z,16.11
2022-10-28T10:27:53.326Z,16.23
2022-10-28T10:30:47.136Z,16.20
2022-10-28T10:33:19.879Z,16.25
2022-10-28T10:35:56.584Z,16.32
2022-10-28T10:38:28.187Z,16.39
2022-10-28T10:40:55.524Z,16.46
2022-10-28T10:43:35.816Z,16.69
2022-10-28T10:46:04.575Z,16.76
2022-10-28T10:48:36.631Z,16.67
2022-10-28T10:51:09.952Z,16.52
2022-10-28T10:53:38.315Z,16.45
2022-10-28T10:56:08.418Z,16.54
2022-10-28T10:58:37.751Z,16.66
2022-10-28T11:01:07.281Z,16.70
2022-10-28T11:03:49.008Z,16.72
2022-10-28T11:06:28.390Z,16.74
2022-10-28T11:09:19.555Z,16.72
2022-10-28T11:11:46.703Z,16.87
2022-10-28T11:14:13.778Z,16.93
2022-10-28T11:16:47.484Z,17.07
2022-10-28T11:19:33.292Z,17.18
2022-10-28T11:22:03.104Z,17.25
2022-10-28T11:24:39.216Z,17.31
2022-10-28T11:27:08.986Z,17.30
2022-10-28T11:29:36.192Z,17.54
2022-10-28T11:32:21.739Z,17.53
2022-10-28T11:35:00.988Z,17.57
2022-10-28T11:37:44.533Z,17.57
2022-10-28T11:40:27.684Z,17.61
2022-10-28T11:43:09.794Z,17.55
2022-10-28T11:46:02.998Z,17.51
2022-10-28T11:48:30.033Z,17.53
2022-10-28T11:50:57.257Z,17.51
2022-10-28T11:53:37.203Z,17.45
2022-10-28T11:56:14.015Z,17.45
2022-10-28T11:58:46.422Z,17.48
2022-10-28T12:01:18.765Z,17.47
2022-10-28T12:03:51.874Z,17.48
2022-10-28T12:06:37.577Z,17.53
2022-10-28T12:09:20.959Z,17.57
2022-10-28T12:12:05.474Z,17.56
2022-10-28T12:14:38.583Z,17.60
2022-10-28T12:17:15.457Z,17.68
2022-10-28T12:19:51.095Z,17.73
2022-10-28T12:22:23.330Z,17.74
2022-10-28T12:24:51.381Z,17.73
2022-10-28T12:27:30.082Z,17.69
2022-10-28T12:30:03.088Z,17.71
2022-10-28T12:32:32.267Z,17.71
2022-10-28T12:35:02.916Z,17.69
2022-10-28T12:37:33.880Z,17.69
2022-10-28T12:40:05.731Z,17.65
2022-10-28T12:42:37.074Z,17.71
2022-10-28T12:45:06.802Z,17.74
2022-10-28T12:47:52.388Z,17.75
2022-10-28T12:50:24.131Z,17.79
2022-10-28T12:52:56.215Z,17.78
2022-10-28T12:55:23.308Z,17.73
2022-10-28T12:57:55.719Z,17.70
2022-10-28T13:00:28.504Z,17.66
2022-10-28T13:02:58.284Z,17.64
2022-10-28T13:05:27.540Z,17.67
2022-10-28T13:08:07.004Z,17.67
2022-10-28T13:10:48.202Z,17.65
2022-10-28T13:13:31.221Z,17.64
2022-10-28T13:16:16.912Z,17.61
2022-10-28T13:18:55.560Z,17.58
2022-10-28T13:21:40.194Z,17.59
2022-10-28T13:24:21.069Z,17.65
2022-10-28T13:26:48.601Z,17.69
2022-10-28T13:29:21.401Z,17.71
2022-10-28T13:31:49.000Z,17.69
2022-10-28T13:34:17.848Z,17.72
2022-10-28T13:36:57.471Z,17.72
2022-10-28T13:39:24.838Z,17.76
2022-10-28T13:42:24.155Z,17.79
2022-10-28T13:44:55.587Z,17.76
2022-10-28T13:47:24.401Z,17.68
2022-10-28T13:50:06.871Z,17.62
2022-10-28T13:52:33.966Z,17.57
2022-10-28T13:55:16.218Z,17.51
2022-10-28T13:57:44.597Z,17.45
2022-10-28T14:00:17.604Z,17.39
2022-10-28T14:02:48.895Z,17.32
2022-10-28T14:05:17.563Z,17.28
2022-10-28T14:07:58.656Z,17.27
2022-10-28T14:10:27.392Z,17.25
2022-10-28T14:12:54.942Z,17.24
2022-10-28T14:15:37.165Z,17.22
2022-10-28T14:18:37.384Z,17.19
2022-10-28T14:21:01.796Z,17.19
2022-10-28T14:23:29.041Z,17.18
2022-10-28T14:25:56.300Z,17.17
2022-10-28T14:28:29.765Z,17.13
2022-10-28T14:31:09.341Z,17.09
2022-10-28T14:33:37.098Z,17.03
2022-10-28T14:36:19.536Z,17.00
2022-10-28T14:39:05.297Z,16.93
2022-10-28T14:41:32.984Z,16.85
2022-10-28T14:44:03.218Z,16.79
2022-10-28T14:46:59.646Z,16.74
2022-10-28T14:49:37.188Z,16.67
2022-10-28T14:52:11.645Z,16.62
2022-10-28T14:54:48.086Z,16.59
2022-10-28T14:57:16.585Z,16.58
2022-10-28T14:59:44.539Z,16.56
2022-10-28T15:02:21.040Z,16.53
2022-10-28T15:04:57.553Z,16.48
2022-10-28T15:07:24.768Z,16.44
2022-10-28T15:09:53.724Z,16.40
2022-10-28T15:12:22.667Z,16.39
2022-10-28T15:14:53.840Z,16.35
2022-10-28T15:17:20.877Z,16.30
2022-10-28T15:19:49.446Z,16.29
2022-10-28T15:22:18.602Z,16.28
2022-10-28T15:24:55.973Z,16.27
2022-10-28T15:27:23.740Z,16.26
2022-10-28T15:29:51.034Z,16.25
2022-10-28T15:32:21.135Z,16.24
2022-10-28T15:34:48.812Z,16.26
2022-10-28T15:37:21.350Z,16.24
2022-10-28T15:39:58.660Z,16.20
2022-10-28T15:42:50.224Z,16.21
2022-10-28T15:45:24.090Z,16.21
2022-10-28T15:47:51.861Z,16.20
2022-10-28T15:50:48.632Z,16.17
2022-10-28T15:53:22.619Z,16.14
2022-10-28T15:56:07.816Z,16.07
2022-10-28T15:58:39.292Z,16.03
2022-10-28T16:01:26.502Z,15.98
2022-10-28T16:03:53.751Z,15.91
2022-10-28T16:06:23.905Z,15.85
2022-10-28T16:09:05.643Z,15.80
2022-10-28T16:11:36.403Z,15.73
2022-10-28T16:14:18.824Z,15.64
2022-10-28T16:16:46.013Z,15.55
2022-10-28T16:19:24.163Z,15.52
2022-10-28T16:21:51.220Z,15.45
2022-10-28T16:24:18.275Z,15.39
2022-10-28T16:26:45.370Z,15.30
2022-10-28T16:29:12.397Z,15.19
2022-10-28T16:31:41.017Z,15.12
2022-10-28T16:34:13.726Z,15.06
2022-10-28T16:36:40.746Z,15.03
2022-10-28T16:39:14.211Z,15.02
2022-10-28T16:41:41.350Z,15.01
2022-10-28T16:44:18.159Z,15.04
2022-10-28T16:46:45.284Z,15.06
2022-10-28T16:49:12.295Z,15.06
2022-10-28T16:51:39.867Z,15.05
2022-10-28T16:54:07.544Z,15.01
2022-10-28T16:56:34.657Z,14.99
2022-10-28T16:59:01.707Z,14.96
2022-10-28T17:01:28.879Z,14.94
2022-10-28T17:03:56.011Z,14.95
2022-10-28T17:06:23.097Z,14.95
2022-10-28T17:09:02.412Z,14.91
2022-10-28T17:13:58.267Z,14.85
2022-10-28T17:16:25.462Z,14.87
2022-10-28T17:18:52.524Z,14.86
2022-10-28T17:21:19.813Z,14.83
2022-10-28T17:23:46.891Z,14.79
2022-10-28T17:26:13.941Z,14.80
2022-10-28T17:28:41.043Z,14.80
2022-10-28T17:31:08.478Z,14.79
2022-10-28T17:33:35.525Z,14.76
2022-10-28T17:36:03.147Z,14.76
2022-10-28T17:38:30.321Z,14.71
2022-10-28T17:40:58.005Z,14.69
2022-10-28T17:43:25.086Z,14.68
2022-10-28T17:45:52.270Z,14.66
2022-10-28T17:48:19.345Z,14.65
2022-10-28T17:50:53.313Z,14.66
2022-10-28T17:53:21.864Z,14.68
2022-10-28T17:55:55.860Z,14.67
2022-10-28T17:58:23.112Z,14.66
2022-10-28T18:00:55.478Z,14.66
2022-10-28T18:03:22.527Z,14.65
2022-10-28T18:05:49.611Z,14.68
2022-10-28T18:08:16.653Z,14.65
2022-10-28T18:10:53.326Z,14.64
2022-10-28T18:13:21.175Z,14.63
2022-10-28T18:15:48.251Z,14.61
2022-10-28T18:18:15.425Z,14.61
2022-10-28T18:20:42.530Z,14.59
2022-10-28T18:23:09.558Z,14.58
2022-10-28T18:25:36.715Z,14.56
2022-10-28T18:28:04.427Z,14.56
2022-10-28T18:30:31.906Z,14.56
2022-10-28T18:32:58.950Z,14.56
2022-10-28T18:35:26.100Z,14.57
2022-10-28T18:37:54.024Z,14.56
2022-10-28T18:40:21.202Z,14.55
2022-10-28T18:42:48.257Z,14.52
2022-10-28T18:45:15.326Z,14.51
2022-10-28T18:47:44.466Z,14.51
2022-10-28T18:50:11.520Z,14.51
2022-10-28T18:52:38.619Z,14.48
2022-10-28T18:55:06.030Z,14.48
2022-10-28T18:57:33.080Z,14.46
2022-10-28T19:02:47.963Z,14.41
2022-10-28T19:05:15.220Z,14.41
2022-10-28T19:07:42.299Z,14.43
2022-10-28T19:10:09.534Z,14.45
2022-10-28T19:12:42.779Z,14.46
2022-10-28T19:15:12.145Z,14.46
2022-10-28T19:17:39.169Z,14.45
2022-10-28T19:20:06.443Z,14.44
2022-10-28T19:22:33.605Z,14.41
2022-10-28T19:25:00.708Z,14.41
2022-10-28T19:27:27.825Z,14.40
2022-10-28T19:29:55.282Z,14.39
2022-10-28T19:32:22.367Z,14.38
2022-10-28T19:34:49.377Z,14.38
2022-10-28T19:37:16.421Z,14.37
2022-10-28T19:39:43.444Z,14.36
2022-10-28T19:42:10.507Z,14.35
2022-10-28T19:44:37.587Z,14.32
2022-10-28T19:47:04.636Z,14.34
2022-10-28T19:49:37.159Z,14.32
2022-10-28T19:52:06.464Z,14.30
2022-10-28T19:54:33.478Z,14.31
2022-10-28T19:57:00.555Z,14.31
2022-10-28T19:59:27.692Z,14.31
2022-10-28T20:01:54.797Z,14.30
2022-10-28T20:04:21.953Z,14.28
2022-10-28T20:06:49.034Z,14.27
2022-10-28T20:09:16.063Z,14.25
2022-10-28T20:11:44.522Z,14.24
2022-10-28T20:14:12.619Z,14.20
2022-10-28T20:16:42.677Z,14.18
2022-10-28T20:19:10.259Z,14.17
2022-10-28T20:21:38.146Z,14.16
2022-10-28T20:24:06.057Z,14.14
2022-10-28T20:26:34.156Z,14.11
2022-10-28T20:29:04.003Z,14.09
2022-10-28T20:31:31.827Z,14.07
2022-10-28T20:34:00.642Z,14.06
2022-10-28T20:36:30.987Z,14.06
2022-10-28T20:38:59.752Z,14.04
2022-10-28T20:41:33.701Z,14.07
2022-10-28T20:44:02.508Z,14.09
2022-10-28T20:46:29.823Z,14.11
2022-10-28T20:48:57.205Z,14.12
2022-10-28T20:51:25.415Z,14.11
2022-10-28T20:53:52.557Z,14.10
2022-10-28T20:56:23.952Z,14.08
2022-10-28T20:58:51.129Z,14.05
2022-10-28T21:01:23.481Z,14.03
2022-10-28T21:03:53.693Z,14.00
2022-10-28T21:06:21.135Z,14.00
2022-10-28T21:08:48.236Z,13.98
2022-10-28T21:11:16.456Z,13.98
2022-10-28T21:13:43.708Z,13.97
2022-10-28T21:16:11.880Z,13.95
2022-10-28T21:18:39.573Z,13.95
2022-10-28T21:21:07.008Z,13.96
2022-10-28T21:23:34.094Z,13.93
2022-10-28T21:26:02.767Z,13.94
2022-10-28T21:28:30.490Z,13.93
2022-10-28T21:31:00.826Z,13.91
2022-10-28T21:33:28.212Z,13.89
2022-10-28T21:35:59.136Z,13.88
2022-10-28T21:38:27.278Z,13.87
2022-10-28T21:41:13.093Z,13.87
2022-10-28T21:43:41.602Z,13.86
2022-10-28T21:46:09.115Z,13.86
2022-10-28T21:48:36.849Z,13.85
2022-10-28T21:51:08.491Z,13.79
2022-10-28T21:53:39.014Z,13.71
2022-10-28T21:56:09.078Z,13.73
2022-10-28T21:58:40.513Z,13.72
2022-10-28T22:01:09.040Z,13.69
2022-10-28T22:03:36.453Z,13.66
2022-10-28T22:06:03.689Z,13.61
2022-10-28T22:08:30.797Z,13.58
2022-10-28T22:11:12.194Z,13.57
2022-10-28T22:13:39.296Z,13.55
2022-10-28T22:16:07.563Z,13.53
2022-10-28T22:18:35.432Z,13.51
2022-10-28T22:21:06.510Z,13.49
2022-10-28T22:23:33.672Z,13.49
2022-10-28T22:26:04.633Z,13.48
2022-10-28T22:28:32.212Z,13.45
2022-10-28T22:30:59.848Z,13.42
2022-10-28T22:33:27.112Z,13.39
2022-10-28T22:36:01.168Z,13.37
2022-10-28T22:38:28.326Z,13.36
2022-10-28T22:41:02.914Z,13.33
2022-10-28T22:43:30.103Z,13.34
2022-10-28T22:45:58.158Z,13.31
2022-10-28T22:48:25.285Z,13.30
2022-10-28T22:50:52.758Z,13.29
2022-10-28T22:53:19.845Z,13.28
2022-10-28T22:55:47.358Z,13.29
2022-10-28T22:58:15.537Z,13.28
2022-10-28T23:00:43.034Z,13.28
2022-10-28T23:03:10.253Z,13.24
2022-10-28T23:05:37.390Z,13.23
2022-10-28T23:08:04.482Z,13.22
2022-10-28T23:10:31.637Z,13.20
2022-10-28T23:12:59.177Z,13.18
2022-10-28T23:15:26.498Z,13.20
2022-10-28T23:17:53.802Z,13.19
2022-10-28T23:20:21.897Z,13.18
2022-10-28T23:22:49.010Z,13.18
2022-10-28T23:25:16.355Z,13.18
2022-10-28T23:27:43.900Z,13.19
2022-10-28T23:30:12.281Z,13.15
2022-10-28T23:32:40.067Z,13.14
2022-10-28T23:35:07.299Z,13.14
2022-10-28T23:37:34.360Z,13.12
2022-10-28T23:40:01.552Z,13.14
2022-10-28T23:42:28.648Z,13.15
2022-10-28T23:44:55.694Z,13.13
2022-10-28T23:47:22.744Z,13.12
2022-10-28T23:49:49.776Z,13.12
2022-10-28T23:52:16.828Z,13.11
2022-10-28T23:54:43.934Z,13.12
2022-10-28T23:57:11.034Z,13.12
2022-10-28T23:59:38.060Z,13.09
